Time;durP1;ratioP1;P1;durP2;ratioP2;P2;SDS_P1;SDS_P2;PMS_P1;PMS_P2;Temp;Humidity;BMP_temperature;BMP_pressure;BME280_temperature;BME280_humidity;BME280_pressure;Samples;Min_cycle;Max_cycle;Signal;HPM_P1;HPM_P2
2022/04/29 00:00:24;;;;;;;14.13;6.63;;;;;;;;;;5111044;28;20046;-89
2022/04/29 00:03:11;;;;;;;12.43;6.80;;;5.70;99.90;;;;;;5110756;28;20057;-89
2022/04/29 00:05:55;;;;;;;17.67;9.85;;;;;;;;;;5111535;28;20039;-89
2022/04/29 00:08:40;;;;;;;13.70;7.05;;;;;;;;;;5111453;28;20127;-89
2022/04/29 00:11:27;;;;;;;15.88;7.85;;;;;;;;;;5110658;28;20081;-89
2022/04/29 00:14:12;;;;;;;15.73;7.90;;;;;;;;;;5112478;28;20433;-89
2022/04/29 00:16:57;;;;;;;12.45;7.22;;;5.60;99.90;;;;;;5105636;27;20493;-88
2022/04/29 00:19:43;;;;;;;11.40;6.60;;;;;;;;;;5121126;27;20060;-89
2022/04/29 00:22:28;;;;;;;12.75;7.22;;;;;;;;;;5120530;27;20041;-89
2022/04/29 00:25:12;;;;;;;16.90;7.57;;;;;;;;;;5106311;27;20043;-89
2022/04/29 00:27:57;;;;;;;17.48;6.65;;;;;;;;;;5120830;27;20119;-89
2022/04/29 00:30:42;;;;;;;12.73;7.05;;;;;;;;;;5121002;27;20118;-89
2022/04/29 00:33:27;;;;;;;21.02;8.05;;;;;;;;;;5135894;27;20033;-89
2022/04/29 00:36:12;;;;;;;14.57;7.93;;;;;;;;;;5106052;27;20043;-88
2022/04/29 00:38:56;;;;;;;19.17;8.23;;;;;;;;;;5106636;27;20042;-89
2022/04/29 00:41:44;;;;;;;11.65;8.23;;;;;;;;;;5106482;27;20037;-89
2022/04/29 00:44:29;;;;;;;16.55;7.75;;;;;;;;;;5135565;27;20543;-89
2022/04/29 00:47:17;;;;;;;11.60;7.20;;;5.50;99.90;;;;;;5105896;27;20050;-88
2022/04/29 00:50:01;;;;;;;13.48;8.13;;;;;;;;;;5120634;27;20034;-88
2022/04/29 00:52:47;;;;;;;18.67;9.10;;;;;;;;;;5106200;27;20086;-88
2022/04/29 00:55:34;;;;;;;15.18;7.70;;;5.40;99.90;;;;;;5135335;27;20084;-88
2022/04/29 00:58:33;;;;;;;17.45;7.25;;;5.40;99.90;;;;;;5119975;27;20089;-89
2022/04/29 01:01:20;;;;;;;12.70;7.60;;;;;;;;;;5119505;27;20069;-89
2022/04/29 01:04:05;;;;;;;16.30;7.05;;;;;;;;;;5120319;27;20045;-89
2022/04/29 01:06:49;;;;;;;14.38;7.55;;;;;;;;;;5135881;27;20544;-89
2022/04/29 01:09:34;;;;;;;13.90;7.30;;;;;;;;;;5119423;27;20034;-89
2022/04/29 01:12:19;;;;;;;12.55;7.60;;;;;;;;;;5135112;27;20072;-89
2022/04/29 01:15:06;;;;;;;18.52;7.80;;;5.20;99.90;;;;;;5120232;27;20095;-89
2022/04/29 01:17:54;;;;;;;16.20;7.47;;;5.20;99.90;;;;;;5120142;27;20151;-89
2022/04/29 01:20:39;;;;;;;14.70;7.78;;;;;;;;;;5119600;27;20387;-89
2022/04/29 01:23:24;;;;;;;13.63;7.45;;;;;;;;;;5105077;27;20100;-89
2022/04/29 01:26:10;;;;;;;14.82;7.63;;;;;;;;;;5119468;27;20140;-88
2022/04/29 01:28:55;;;;;;;12.50;7.88;;;;;;;;;;5119771;27;20483;-89
2022/04/29 01:31:40;;;;;;;13.75;6.90;;;;;;;;;;5119418;27;20077;-89
2022/04/29 01:34:28;;;;;;;14.88;7.43;;;;;;;;;;5104829;27;20073;-89
2022/04/29 01:37:12;;;;;;;15.60;7.25;;;;;;;;;;5119729;27;20033;-89
2022/04/29 01:39:57;;;;;;;11.40;7.10;;;;;;;;;;5119563;27;20046;-89
2022/04/29 01:42:42;;;;;;;12.38;6.95;;;5.00;99.90;;;;;;5134839;27;20038;-89
2022/04/29 01:45:27;;;;;;;13.63;6.82;;;;;;;;;;5119052;27;20123;-89
2022/04/29 01:48:13;;;;;;;17.02;7.75;;;5.00;99.90;;;;;;5119724;27;20042;-88
2022/04/29 01:50:58;;;;;;;16.85;7.53;;;;;;;;;;5119354;27;20039;-89
2022/04/29 01:53:43;;;;;;;17.30;7.88;;;;;;;;;;5118857;27;20438;-89
2022/04/29 01:56:33;;;;;;;12.50;7.15;;;;;;;;;;5118498;27;20096;-88
2022/04/29 01:59:18;;;;;;;14.20;6.90;;;;;;;;;;5119301;27;20080;-89
2022/04/29 02:02:05;;;;;;;12.38;7.57;;;;;;;;;;5138966;27;20049;-89
2022/04/29 02:04:50;;;;;;;14.48;7.65;;;;;;;;;;5139633;27;20042;-88
2022/04/29 02:07:34;;;;;;;17.15;6.68;;;;;;;;;;5139180;27;20398;-89
2022/04/29 02:10:20;;;;;;;18.55;8.45;;;;;;;;;;5139566;27;20045;-89
2022/04/29 02:13:04;;;;;;;13.55;7.63;;;;;;;;;;5139881;27;20526;-89
2022/04/29 02:15:49;;;;;;;14.50;7.07;;;;;;;;;;5124985;27;20077;-89
2022/04/29 02:18:34;;;;;;;18.77;8.35;;;;;;;;;;5132473;27;20103;-89
2022/04/29 02:21:19;;;;;;;14.13;7.53;;;;;;;;;;5134368;27;20042;-90
2022/04/29 02:24:03;;;;;;;14.27;7.63;;;;;;;;;;5133382;27;20042;-89
2022/04/29 02:26:48;;;;;;;19.38;7.60;;;;;;;;;;5118444;27;20050;-89
2022/04/29 02:29:33;;;;;;;15.43;7.20;;;;;;;;;;5133783;27;20620;-88
2022/04/29 02:32:17;;;;;;;15.13;7.70;;;;;;;;;;5134256;27;20037;-89
2022/04/29 02:35:02;;;;;;;12.30;6.72;;;;;;;;;;5133029;27;20061;-88
2022/04/29 02:37:47;;;;;;;16.92;7.13;;;;;;;;;;5131567;27;20134;-89
2022/04/29 02:40:32;;;;;;;15.73;7.57;;;;;;;;;;5132650;27;20038;-89
2022/04/29 02:43:16;;;;;;;11.00;7.05;;;;;;;;;;5132873;27;20054;-89
2022/04/29 02:46:01;;;;;;;16.13;8.57;;;;;;;;;;5132928;27;20034;-89
2022/04/29 02:48:49;;;;;;;13.55;6.90;;;;;;;;;;5118007;27;20081;-90
2022/04/29 02:51:34;;;;;;;22.55;8.73;;;;;;;;;;5132231;27;20076;-89
2022/04/29 02:54:18;;;;;;;14.02;7.60;;;;;;;;;;5132822;27;20088;-89
2022/04/29 02:57:03;;;;;;;16.88;8.20;;;;;;;;;;5132896;27;20089;-89
2022/04/29 02:59:48;;;;;;;13.82;7.70;;;;;;;;;;5132081;27;20577;-89
2022/04/29 03:02:32;;;;;;;17.55;7.65;;;;;;;;;;5132098;27;20054;-90
2022/04/29 03:05:17;;;;;;;12.05;7.32;;;;;;;;;;5118247;27;20149;-90
2022/04/29 03:08:01;;;;;;;11.57;7.05;;;;;;;;;;5133651;27;20042;-89
2022/04/29 03:10:49;;;;;;;17.20;7.40;;;;;;;;;;5131741;27;20042;-89
2022/04/29 03:13:34;;;;;;;20.08;8.13;;;;;;;;;;5131907;27;20398;-90
2022/04/29 03:16:18;;;;;;;15.15;7.30;;;;;;;;;;5118010;27;20046;-89
2022/04/29 03:19:04;;;;;;;21.58;9.38;;;;;;;;;;5132246;27;20451;-89
2022/04/29 03:21:48;;;;;;;10.82;6.70;;;;;;;;;;5132752;27;20079;-89
2022/04/29 03:24:35;;;;;;;15.20;7.20;;;;;;;;;;5131755;27;20415;-87
2022/04/29 03:27:19;;;;;;;11.52;7.25;;;;;;;;;;5133133;27;20411;-90
2022/04/29 03:30:04;;;;;;;13.32;6.60;;;;;;;;;;5117878;28;20524;-89
2022/04/29 03:32:56;;;;;;;12.93;7.07;;;;;;;;;;5131645;28;20041;-89
2022/04/29 03:35:42;;;;;;;13.80;7.75;;;4.70;99.90;;;;;;5131379;28;20087;-89
2022/04/29 03:38:27;;;;;;;12.07;6.72;;;;;;;;;;5133522;28;20127;-89
2022/04/29 03:41:12;;;;;;;12.80;6.57;;;;;;;;;;5133149;28;20038;-89
2022/04/29 03:43:56;;;;;;;14.20;6.35;;;;;;;;;;5116802;28;20039;-89
2022/04/29 03:46:41;;;;;;;15.23;7.72;;;;;;;;;;5131547;28;20047;-89
2022/04/29 03:49:38;;;;;;;12.93;6.93;;;;;;;;;;5135836;27;20092;-89
2022/04/29 03:52:22;;;;;;;14.38;6.72;;;;;;;;;;5136422;27;20053;-89
2022/04/29 03:55:07;;;;;;;11.32;6.88;;;;;;;;;;5136359;27;20041;-89
2022/04/29 03:57:56;;;;;;;15.02;8.38;;;;;;;;;;5135594;27;20126;-90
2022/04/29 04:00:40;;;;;;;10.57;7.15;;;;;;;;;;5135485;27;20496;-90
2022/04/29 04:03:25;;;;;;;13.63;7.05;;;;;;;;;;5136382;27;20398;-89
2022/04/29 04:09:13;;;;;;;14.57;6.93;;;;;;;;;;5137281;27;20047;-90
2022/04/29 04:11:58;;;;;;;12.30;6.90;;;;;;;;;;5135391;27;20100;-90
2022/04/29 04:14:45;;;;;;;10.50;6.18;;;;;;;;;;5135339;27;20058;-89
2022/04/29 04:17:29;;;;;;;11.27;6.97;;;;;;;;;;5146253;27;20062;-90
2022/04/29 04:20:14;;;;;;;11.02;6.72;;;;;;;;;;5157383;27;20041;-90
2022/04/29 04:22:59;;;;;;;14.32;7.43;;;;;;;;;;5127489;27;20118;-89
2022/04/29 04:25:43;;;;;;;13.77;7.63;;;;;;;;;;5128087;27;20093;-89
2022/04/29 04:28:30;;;;;;;12.15;7.07;;;;;;;;;;5136146;27;20543;-90
2022/04/29 04:31:15;;;;;;;11.32;7.35;;;;;;;;;;5127893;27;20041;-89
2022/04/29 04:34:49;;;;;;;13.00;7.65;;;;;;;;;;5141015;27;20102;-89
2022/04/29 04:37:07;;;;;;;16.00;8.90;;;;;;;;;;5156584;27;20523;-89
2022/04/29 04:39:52;;;;;;;18.52;9.73;;;;;;;;;;5156611;27;20457;-89
2022/04/29 04:42:44;;;;;;;17.92;8.95;;;;;;;;;;5157312;27;20102;-89
2022/04/29 04:45:29;;;;;;;21.15;10.07;;;;;;;;;;5141661;27;20034;-90
2022/04/29 04:48:13;;;;;;;18.27;8.93;;;;;;;;;;5141709;27;20045;-89
2022/04/29 04:51:01;;;;;;;19.58;9.43;;;;;;;;;;5140917;27;20049;-89
2022/04/29 04:53:46;;;;;;;19.67;9.18;;;;;;;;;;5143218;27;20037;-89
2022/04/29 04:56:31;;;;;;;17.73;9.73;;;;;;;;;;5163918;27;20050;-89
2022/04/29 04:59:15;;;;;;;16.10;9.20;;;;;;;;;;5179618;27;20041;-89
2022/04/29 05:02:03;;;;;;;18.33;9.65;;;;;;;;;;5162823;27;20029;-89
2022/04/29 05:04:48;;;;;;;17.17;8.65;;;;;;;;;;5152340;27;20056;-89
2022/04/29 05:07:33;;;;;;;20.08;9.93;;;;;;;;;;5159000;27;20037;-90
2022/04/29 05:10:18;;;;;;;12.48;8.52;;;;;;;;;;5132950;27;20068;-90
2022/04/29 05:13:03;;;;;;;18.83;9.40;;;;;;;;;;5151484;27;20033;-90
2022/04/29 05:15:48;;;;;;;16.00;8.82;;;;;;;;;;5164782;27;20040;-88
2022/04/29 05:18:32;;;;;;;21.60;9.27;;;;;;;;;;5143279;27;20410;-90
2022/04/29 05:21:17;;;;;;;15.02;9.20;;;;;;;;;;5143846;27;20542;-91
2022/04/29 05:24:01;;;;;;;13.45;8.25;;;;;;;;;;5128896;27;20076;-90
2022/04/29 05:26:49;;;;;;;17.83;8.13;;;;;;;;;;5128821;27;20547;-89
2022/04/29 05:29:34;;;;;;;11.48;7.10;;;;;;;;;;5123714;27;20049;-89
2022/04/29 05:32:19;;;;;;;15.63;8.48;;;;;;;;;;5137469;27;20819;-88
2022/04/29 05:35:05;;;;;;;17.30;7.15;;;;;;;;;;5135925;27;20071;-89
2022/04/29 05:37:50;;;;;;;11.10;6.28;;;;;;;;;;5119103;27;20144;-88
2022/04/29 05:43:37;;;;;;;12.77;6.57;;;;;;;;;;5136027;27;20046;-89
2022/04/29 05:46:22;;;;;;;18.58;6.40;;;;;;;;;;5130314;27;20551;-89
2022/04/29 05:49:07;;;;;;;12.30;6.18;;;;;;;;;;5117553;27;20049;-89
2022/04/29 05:51:52;;;;;;;8.07;6.22;;;;;;;;;;5148261;27;20493;-90
2022/04/29 05:54:37;;;;;;;15.20;7.88;;;;;;;;;;5118443;27;20045;-89
2022/04/29 05:57:21;;;;;;;11.57;6.70;;;;;;;;;;5125692;27;20497;-90
2022/04/29 06:00:09;;;;;;;11.18;6.70;;;;;;;;;;5133079;27;20053;-89
2022/04/29 06:02:54;;;;;;;9.65;6.28;;;;;;;;;;5110139;27;20500;-90
2022/04/29 06:05:41;;;;;;;13.88;7.07;;;;;;;;;;5119118;27;20102;-90
2022/04/29 06:08:26;;;;;;;13.00;6.05;;;;;;;;;;5118954;27;20038;-88
2022/04/29 06:11:11;;;;;;;8.93;5.75;;;;;;;;;;5117808;27;20352;-91
2022/04/29 06:13:56;;;;;;;17.08;7.07;;;;;;;;;;5139155;27;20038;-91
2022/04/29 06:16:40;;;;;;;9.70;5.82;;;;;;;;;;5138999;27;20081;-91
2022/04/29 06:19:28;;;;;;;10.38;6.20;;;;;;;;;;5122161;27;20103;-92
2022/04/29 06:22:19;;;;;;;11.25;6.30;;;;;;;;;;5124903;27;20041;-91
2022/04/29 06:25:05;;;;;;;14.40;6.72;;;;;;;;;;5141569;27;20030;-90
2022/04/29 06:27:52;;;;;;;9.85;6.18;;;;;;;;;;5140376;27;20033;-93
2022/04/29 06:30:37;;;;;;;10.70;6.40;;;;;;;;;;5155338;27;20033;-93
2022/04/29 06:33:21;;;;;;;11.30;5.60;;;;;;;;;;5139852;27;20172;-93
2022/04/29 06:36:06;;;;;;;15.88;6.15;;;;;;;;;;5139315;27;20064;-92
2022/04/29 06:38:54;;;;;;;11.50;6.20;;;;;;;;;;5155523;27;20038;-91
2022/04/29 06:41:40;;;;;;;9.23;5.53;;;;;;;;;;5139771;27;20094;-92
2022/04/29 06:44:27;;;;;;;9.73;6.10;;;;;;;;;;5139434;27;20038;-92
2022/04/29 06:47:12;;;;;;;11.77;5.85;;;;;;;;;;5139333;27;20060;-92
2022/04/29 06:49:56;;;;;;;10.82;6.10;;;;;;;;;;5127987;27;20490;-91
2022/04/29 06:52:41;;;;;;;12.82;6.63;;;;;;;;;;5121248;27;20038;-91
2022/04/29 06:55:27;;;;;;;9.55;5.93;;;;;;;;;;5104664;27;20160;-91
2022/04/29 06:58:14;;;;;;;10.23;5.85;;;;;;;;;;5122103;27;20148;-93
2022/04/29 07:00:59;;;;;;;10.52;6.82;;;;;;;;;;5128013;27;20049;-92
2022/04/29 07:03:44;;;;;;;12.27;6.18;;;;;;;;;;5134346;27;20526;-92
2022/04/29 07:06:31;;;;;;;13.27;6.32;;;;;;;;;;5118062;27;20038;-92
2022/04/29 07:09:16;;;;;;;10.07;5.57;;;;;;;;;;5115159;27;20104;-93
2022/04/29 07:12:01;;;;;;;11.20;5.28;;;;;;;;;;5118647;27;20080;-92
2022/04/29 07:14:45;;;;;;;9.05;5.13;;;;;;;;;;5119343;27;20111;-93
2022/04/29 07:17:32;;;;;;;6.43;4.93;;;;;;;;;;5113366;28;20548;-91
2022/04/29 07:20:18;;;;;;;6.28;4.40;;;;;;;;;;5112104;28;20030;-91
2022/04/29 07:23:03;;;;;;;6.55;4.38;;;;;;;;;;5091479;28;20557;-90
2022/04/29 07:25:47;;;;;;;9.75;4.43;;;;;;;;;;5093223;28;20031;-91
2022/04/29 07:28:33;;;;;;;13.52;4.25;;;;;;;;;;5092257;28;20081;-92
2022/04/29 07:31:17;;;;;;;8.20;4.05;;;;;;;;;;5077010;28;20090;-89
2022/04/29 07:34:02;;;;;;;7.53;3.75;;;;;;;;;;5091741;28;20108;-89
2022/04/29 07:42:57;;;;;;;10.97;4.53;;;;;;;;;;5093454;28;20042;-93
2022/04/29 07:45:52;;;;;;;5.10;2.97;;;;;;;;;;5082716;28;20285;-96
2022/04/29 07:48:38;;;;;;;6.90;3.40;;;;;;;;;;5093130;28;20157;-93
2022/04/29 07:51:22;;;;;;;8.20;3.30;;;;;;;;;;5092344;28;20233;-94
2022/04/29 07:54:07;;;;;;;8.80;3.50;;;;;;;;;;5092255;28;20537;-93
2022/04/29 07:56:53;;;;;;;6.03;3.28;;;;;;;;;;5094214;28;20043;-93
2022/04/29 07:59:40;;;;;;;6.05;2.85;;;;;;;;;;5097654;28;20123;-91
2022/04/29 08:02:25;;;;;;;8.02;3.42;;;;;;;;;;5112328;28;20043;-93
2022/04/29 08:05:10;;;;;;;7.80;3.33;;;;;;;;;;5112162;28;20047;-93
2022/04/29 08:08:01;;;;;;;6.78;3.25;;;;;;;;;;5094183;28;20126;-93
2022/04/29 08:10:46;;;;;;;7.63;3.00;;;;;;;;;;5094375;28;20039;-90
2022/04/29 08:13:31;;;;;;;12.02;3.30;;;;;;;;;;5078452;28;20039;-91
2022/04/29 08:16:16;;;;;;;7.22;3.08;;;;;;;;;;5092915;28;20038;-93
2022/04/29 08:19:08;;;;;;;5.65;3.00;;;;;;;;;;5095450;28;20541;-96
2022/04/29 08:21:55;;;;;;;8.50;3.17;;;;;;;;;;5096270;28;20039;-90
2022/04/29 08:24:40;;;;;;;4.50;2.78;;;;;;;;;;5095278;28;20039;-95
2022/04/29 08:27:25;;;;;;;12.65;3.22;;;;;;;;;;5079013;28;20078;-93
2022/04/29 08:30:10;;;;;;;8.35;2.75;;;;;;;;;;5093667;28;20043;-92
2022/04/29 08:32:54;;;;;;;8.05;2.50;;;;;;;;;;5094642;28;20043;-94
2022/04/29 08:35:42;;;;;;;7.57;2.92;;;;;;;;;;5100043;28;20467;-93
2022/04/29 08:38:27;;;;;;;6.72;2.20;;;;;;;;;;5109296;27;20092;-94
2022/04/29 08:41:12;;;;;;;4.63;2.42;;;;;;;;;;5123020;27;20208;-92
2022/04/29 08:43:57;;;;;;;5.80;2.65;;;;;;;;;;5114551;28;20038;-89
2022/04/29 08:46:42;;;;;;;7.65;2.33;;;;;;;;;;5115780;28;20093;-89
2022/04/29 08:49:26;;;;;;;5.65;2.58;;;;;;;;;;5113974;28;20034;-88
2022/04/29 08:52:13;;;;;;;3.97;2.40;;;;;;;;;;5114693;28;20487;-89
2022/04/29 09:01:11;;;;;;;6.50;2.67;;;10.80;99.90;;;;;;5115274;28;20346;-88
2022/04/29 09:03:56;;;;;;;5.97;2.30;;;;;;;;;;5114508;28;20097;-90
2022/04/29 09:06:47;;;;;;;4.95;2.03;;;;;;;;;;5114393;28;20074;-89
2022/04/29 09:09:32;;;;;;;7.70;2.30;;;;;;;;;;5114890;28;20039;-90
2022/04/29 09:12:17;;;;;;;3.40;2.00;;;;;;;;;;5114619;28;20561;-89
2022/04/29 09:15:12;;;;;;;6.05;2.00;;;;;;;;;;5114378;28;20092;-89
2022/04/29 09:17:57;;;;;;;6.13;1.80;;;;;;;;;;5127172;27;20151;-88
2022/04/29 09:20:42;;;;;;;5.35;2.15;;;;;;;;;;5120170;27;20529;-88
2022/04/29 09:23:35;;;;;;;5.72;2.13;;;;;;;;;;5134287;27;20038;-88
2022/04/29 09:26:29;;;;;;;4.60;2.10;;;;;;;;;;5134021;27;20394;-88
2022/04/29 09:29:15;;;;;;;5.68;1.98;;;;;;;;;;5133918;27;20029;-88
2022/04/29 09:32:03;;;;;;;8.50;2.15;;;;;;;;;;5125137;27;20083;-91
2022/04/29 09:34:50;;;;;;;6.80;2.22;;;;;;;;;;5116362;27;20077;-89
2022/04/29 09:39:26;;;;;;;7.00;1.95;;;11.50;99.90;;;;;;5117387;27;20058;-87
2022/04/29 09:40:41;;;;;;;4.63;1.83;;;;;;;;;;5133057;27;20115;-89
2022/04/29 09:43:36;;;;;;;3.75;1.80;;;;;;;;;;5131124;27;20072;-89
2022/04/29 09:46:22;;;;;;;6.75;2.03;;;;;;;;;;5111938;27;20038;-93
2022/04/29 09:49:09;;;;;;;6.32;1.92;;;;;;;;;;5123505;27;20108;-93
2022/04/29 09:51:54;;;;;;;4.40;2.20;;;;;;;;;;5134747;27;20077;-92
2022/04/29 09:54:39;;;;;;;10.05;2.28;;;;;;;;;;5134172;27;20095;-91
2022/04/29 09:57:23;;;;;;;8.18;2.30;;;;;;;;;;5134091;27;20103;-91
2022/04/29 10:00:14;;;;;;;8.02;2.85;;;;;;;;;;5134477;27;20084;-91
2022/04/29 10:03:03;;;;;;;10.13;2.78;;;;;;;;;;5134768;27;20046;-93
2022/04/29 10:05:51;;;;;;;5.50;2.50;;;;;;;;;;5134345;27;20100;-90
2022/04/29 10:08:36;;;;;;;5.25;2.95;;;;;;;;;;5134279;27;20558;-92
2022/04/29 10:11:22;;;;;;;5.28;2.65;;;;;;;;;;5134644;27;20034;-90
2022/04/29 10:14:08;;;;;;;8.70;2.80;;;11.80;99.90;;;;;;5134758;27;20100;-93
2022/04/29 10:23:16;;;;;;;8.23;2.78;;;;;;;;;;5147576;27;20180;-95
2022/04/29 10:26:02;;;;;;;6.22;2.42;;;;;;;;;;5140944;27;20042;-92
2022/04/29 10:28:55;;;;;;;8.02;2.25;;;;;;;;;;5139684;27;20046;-92
2022/04/29 10:31:39;;;;;;;5.93;2.63;;;;;;;;;;5140159;27;20126;-94
2022/04/29 10:34:34;;;;;;;7.80;3.00;;;;;;;;;;5139291;27;20041;-93
2022/04/29 10:37:31;;;;;;;9.57;2.40;;;11.60;99.90;;;;;;5156433;27;20046;-94
2022/04/29 10:40:15;;;;;;;5.28;2.70;;;;;;;;;;5142615;27;20042;-94
2022/04/29 10:43:07;;;;;;;12.27;3.00;;;;;;;;;;5142336;27;20038;-94
2022/04/29 10:46:15;;;;;;;7.82;2.63;;;;;;;;;;5147918;27;20112;-92
2022/04/29 10:49:19;;;;;;;7.47;2.92;;;;;;;;;;5162463;27;20065;-89
2022/04/29 10:52:04;;;;;;;7.03;2.95;;;;;;;;;;5160908;27;20067;-92
2022/04/29 10:54:56;;;;;;;7.18;2.90;;;;;;;;;;5162144;27;20033;-93
2022/04/29 10:57:41;;;;;;;7.68;2.97;;;;;;;;;;5140388;27;20067;-94
2022/04/29 11:00:27;;;;;;;7.53;2.88;;;;;;;;;;5141479;27;20042;-91
2022/04/29 11:03:35;;;;;;;8.07;3.13;;;11.70;99.90;;;;;;5140846;27;20042;-94
2022/04/29 11:06:20;;;;;;;7.47;3.17;;;;;;;;;;5141579;27;20041;-93
2022/04/29 11:09:27;;;;;;;6.40;3.13;;;11.80;99.90;;;;;;5141612;27;20038;-92
2022/04/29 11:12:29;;;;;;;8.30;3.80;;;11.80;99.90;;;;;;5141884;27;20172;-96
2022/04/29 11:15:21;;;;;;;7.60;3.67;;;;;;;;;;5137274;27;20500;-93
2022/04/29 11:18:14;;;;;;;9.68;3.50;;;11.80;99.90;;;;;;5145433;27;20054;-93
2022/04/29 11:24:40;;;;;;;5.97;3.55;;;;;;;;;;5119215;27;20042;-91
2022/04/29 11:27:12;;;;;;;8.80;3.22;;;;;;;;;;5133103;27;20134;-90
2022/04/29 11:30:01;;;;;;;9.05;3.60;;;;;;;;;;5117829;27;20038;-93
2022/04/29 11:32:46;;;;;;;5.72;3.15;;;;;;;;;;5117271;28;20501;-88
2022/04/29 11:35:31;;;;;;;5.20;3.47;;;;;;;;;;5123942;27;20144;-91
2022/04/29 11:38:15;;;;;;;9.73;3.40;;;;;;;;;;5156050;27;20038;-92
2022/04/29 11:41:01;;;;;;;6.10;3.83;;;;;;;;;;5150864;27;20075;-91
2022/04/29 11:43:47;;;;;;;6.78;4.18;;;;;;;;;;5137403;27;20453;-94
2022/04/29 11:46:31;;;;;;;7.45;4.70;;;;;;;;;;5137499;27;20057;-92
2022/04/29 11:49:32;;;;;;;8.07;4.43;;;11.30;99.90;;;;;;5138752;27;20077;-93
2022/04/29 11:52:20;;;;;;;8.60;5.03;;;11.30;99.90;;;;;;5138761;27;20034;-90
2022/04/29 11:55:07;;;;;;;8.07;3.97;;;11.50;99.90;;;;;;5138781;27;20069;-92
2022/04/29 11:57:54;;;;;;;7.18;4.10;;;;;;;;;;5137372;27;20057;-87
2022/04/29 12:00:39;;;;;;;9.88;4.95;;;;;;;;;;5123661;27;20053;-88
2022/04/29 12:03:25;;;;;;;7.85;4.10;;;;;;;;;;5137920;27;20085;-89
2022/04/29 12:06:10;;;;;;;8.48;3.58;;;;;;;;;;5137717;27;20091;-88
2022/04/29 12:08:55;;;;;;;5.50;3.28;;;;;;;;;;5153096;27;20361;-89
2022/04/29 12:11:39;;;;;;;9.27;4.30;;;;;;;;;;5137136;27;20027;-88
2022/04/29 12:14:25;;;;;;;6.18;3.20;;;;;;;;;;5121512;27;20046;-95
2022/04/29 12:17:09;;;;;;;8.32;3.58;;;;;;;;;;5137032;27;20105;-92
2022/04/29 12:19:57;;;;;;;8.60;3.38;;;;;;;;;;5107356;27;20096;-90
2022/04/29 12:22:42;;;;;;;5.45;4.03;;;;;;;;;;5121402;27;20061;-92
2022/04/29 12:25:28;;;;;;;8.02;3.17;;;;;;;;;;5126935;27;20076;-92
2022/04/29 12:28:12;;;;;;;6.72;4.03;;;;;;;;;;5121561;27;20053;-95
2022/04/29 12:37:15;;;;;;;8.13;3.00;;;;;;;;;;5137782;27;20126;-93
2022/04/29 12:40:05;;;;;;;4.50;3.30;;;12.20;99.80;;;;;;5121460;27;20038;-91
2022/04/29 12:42:50;;;;;;;9.25;2.78;;;;;;;;;;5136895;27;20133;-90
2022/04/29 12:45:35;;;;;;;8.40;3.33;;;;;;;;;;5121477;27;20492;-92
2022/04/29 12:48:27;;;;;;;6.05;3.10;;;;;;;;;;5138291;27;20427;-93
2022/04/29 12:51:25;;;;;;;7.05;3.03;;;;;;;;;;5122952;27;20118;-94
2022/04/29 12:54:23;;;;;;;6.47;3.00;;;12.30;98.10;;;;;;5121212;27;20034;-94
2022/04/29 12:57:09;;;;;;;5.85;3.20;;;;;;;;;;5120882;27;20123;-92
2022/04/29 13:00:00;;;;;;;15.10;3.72;;;12.40;99.10;;;;;;5120698;27;20042;-94
2022/04/29 13:02:45;;;;;;;4.93;3.15;;;;;;;;;;5121095;27;20136;-88
2022/04/29 13:05:30;;;;;;;4.93;3.15;;;;;;;;;;5120885;27;20031;-90
2022/04/29 13:08:19;;;;;;;5.10;2.95;;;12.50;98.40;;;;;;5122544;27;20502;-93
2022/04/29 13:11:04;;;;;;;4.95;2.47;;;;;;;;;;5094094;27;20069;-92
2022/04/29 13:13:51;;;;;;;6.38;2.47;;;12.70;98.20;;;;;;5105723;27;20077;-91
2022/04/29 13:16:37;;;;;;;8.48;2.58;;;;;;;;;;5135827;27;20045;-90
2022/04/29 13:19:21;;;;;;;5.80;2.75;;;;;;;;;;5099744;28;20066;-91
2022/04/29 13:22:06;;;;;;;4.15;2.38;;;;;;;;;;5113079;28;20145;-93
2022/04/29 13:24:51;;;;;;;5.55;2.58;;;;;;;;;;5113928;28;20039;-89
2022/04/29 13:27:37;;;;;;;5.53;2.90;;;;;;;;;;5100240;28;20413;-91
2022/04/29 13:30:21;;;;;;;5.47;2.30;;;;;;;;;;5114441;28;20084;-88
2022/04/29 13:33:06;;;;;;;9.27;2.75;;;;;;;;;;5114351;28;20818;-89
2022/04/29 13:35:51;;;;;;;4.72;2.72;;;;;;;;;;5099086;28;20545;-89
2022/04/29 13:38:36;;;;;;;6.28;2.25;;;;;;;;;;5114790;28;20677;-94
2022/04/29 13:41:20;;;;;;;6.13;2.60;;;;;;;;;;5099865;28;20080;-90
2022/04/29 13:44:05;;;;;;;4.88;2.13;;;;;;;;;;5113916;28;20043;-92
2022/04/29 13:46:49;;;;;;;7.07;2.92;;;;;;;;;;5099511;28;20038;-89
2022/04/29 13:49:34;;;;;;;4.22;2.88;;;;;;;;;;5113657;28;20042;-90
2022/04/29 13:55:26;;;;;;;6.20;2.63;;;;;;;;;;5115272;28;20127;-90
2022/04/29 13:58:10;;;;;;;5.15;2.58;;;;;;;;;;5098875;28;20181;-89
2022/04/29 14:00:55;;;;;;;6.15;2.63;;;;;;;;;;5112908;28;20104;-89
2022/04/29 14:03:42;;;;;;;5.88;2.80;;;;;;;;;;5098768;28;20618;-90
2022/04/29 14:06:30;;;;;;;5.65;2.65;;;;;;;;;;5114089;28;20072;-88
2022/04/29 14:09:15;;;;;;;8.90;2.50;;;;;;;;;;5112686;28;20118;-89
2022/04/29 14:12:01;;;;;;;7.57;2.65;;;;;;;;;;5112426;28;20174;-89
2022/04/29 14:14:45;;;;;;;5.72;2.60;;;;;;;;;;5112994;28;20136;-89
2022/04/29 14:17:30;;;;;;;5.70;2.85;;;;;;;;;;5114563;27;20536;-89
2022/04/29 14:20:15;;;;;;;4.03;2.33;;;;;;;;;;5138639;27;20232;-89
2022/04/29 14:23:00;;;;;;;4.25;2.55;;;;;;;;;;5139084;27;20042;-89
2022/04/29 14:25:44;;;;;;;5.38;2.60;;;;;;;;;;5139368;27;20041;-89
2022/04/29 14:28:29;;;;;;;7.93;2.90;;;;;;;;;;5139141;27;20521;-89
2022/04/29 14:31:14;;;;;;;5.60;2.40;;;;;;;;;;5138766;27;20638;-89
2022/04/29 14:34:02;;;;;;;5.20;2.45;;;;;;;;;;5137567;27;20041;-92
2022/04/29 14:36:46;;;;;;;7.30;2.80;;;;;;;;;;5139142;27;20056;-87
2022/04/29 14:39:30;;;;;;;6.95;3.03;;;;;;;;;;5124768;27;20402;-91
2022/04/29 14:42:18;;;;;;;4.53;2.63;;;;;;;;;;5139027;27;20092;-90
2022/04/29 14:45:05;;;;;;;6.13;2.50;;;;;;;;;;5123893;27;20082;-89
2022/04/29 14:47:49;;;;;;;6.47;2.70;;;;;;;;;;5139271;27;20075;-91
2022/04/29 14:50:35;;;;;;;8.18;2.75;;;;;;;;;;5138705;27;20087;-90
2022/04/29 14:53:20;;;;;;;5.43;2.53;;;;;;;;;;5138536;27;20053;-90
2022/04/29 14:56:05;;;;;;;9.60;3.60;;;12.30;96.70;;;;;;5138172;27;20073;-90
2022/04/29 14:58:50;;;;;;;6.97;2.80;;;;;;;;;;5124238;27;20038;-88
2022/04/29 15:01:34;;;;;;;6.38;2.70;;;;;;;;;;5138985;27;20041;-91
2022/04/29 15:04:19;;;;;;;5.75;3.10;;;;;;;;;;5137872;27;20167;-90
2022/04/29 15:07:04;;;;;;;8.50;3.28;;;;;;;;;;5138395;27;20046;-93
2022/04/29 15:15:57;;;;;;;7.45;3.40;;;;;;;;;;5158237;27;20484;-88
2022/04/29 15:18:41;;;;;;;7.57;4.10;;;;;;;;;;5129662;27;20066;-88
2022/04/29 15:21:29;;;;;;;7.70;3.70;;;;;;;;;;5124395;27;20037;-88
2022/04/29 15:24:13;;;;;;;9.25;4.00;;;;;;;;;;5138645;27;20398;-88
2022/04/29 15:26:58;;;;;;;6.28;4.15;;;;;;;;;;5124652;27;20042;-89
2022/04/29 15:29:44;;;;;;;12.43;4.78;;;;;;;;;;5138883;27;20030;-88
2022/04/29 15:32:29;;;;;;;8.43;5.38;;;;;;;;;;5124614;27;20448;-88
2022/04/29 15:35:13;;;;;;;9.57;5.07;;;;;;;;;;5137856;27;20045;-89
2022/04/29 15:37:58;;;;;;;26.75;5.57;;;;;;;;;;5153738;27;20551;-88
2022/04/29 15:40:45;;;;;;;10.05;4.80;;;;;;;;;;5139164;27;20100;-90
2022/04/29 15:43:30;;;;;;;11.20;4.90;;;;;;;;;;5139073;27;20387;-90
2022/04/29 15:46:14;;;;;;;8.40;4.80;;;;;;;;;;5142935;27;20081;-91
2022/04/29 15:48:59;;;;;;;10.70;5.00;;;;;;;;;;5143539;27;20145;-90
2022/04/29 15:51:44;;;;;;;12.73;5.15;;;;;;;;;;5143951;27;20108;-89
2022/04/29 15:54:29;;;;;;;10.10;4.95;;;;;;;;;;5158173;27;20087;-89
2022/04/29 15:57:14;;;;;;;10.63;5.30;;;;;;;;;;5128027;27;20456;-87
2022/04/29 15:59:58;;;;;;;7.18;3.97;;;;;;;;;;5158961;27;20401;-90
2022/04/29 16:02:43;;;;;;;7.95;3.80;;;;;;;;;;5159298;27;20054;-89
2022/04/29 16:05:28;;;;;;;7.18;4.20;;;;;;;;;;5151745;27;20047;-87
2022/04/29 16:08:13;;;;;;;9.57;3.90;;;;;;;;;;5157326;27;20033;-91
2022/04/29 16:10:57;;;;;;;7.43;3.53;;;;;;;;;;5159634;27;20387;-87
2022/04/29 16:13:42;;;;;;;8.20;3.13;;;;;;;;;;5152847;27;20037;-86
2022/04/29 16:16:27;;;;;;;6.93;3.40;;;;;;;;;;5158799;27;20187;-91
2022/04/29 16:25:35;;;;;;;5.15;2.20;;;;;;;;;;5152822;27;20046;-91
2022/04/29 16:25:35;;;;;;;6.13;2.28;;;;;;;;;;5160332;27;20088;-90
2022/04/29 16:28:20;;;;;;;7.22;2.50;;;;;;;;;;5132720;27;20060;-90
2022/04/29 16:31:05;;;;;;;5.57;2.40;;;;;;;;;;5127041;27;20046;-93
2022/04/29 16:33:51;;;;;;;4.90;2.20;;;;;;;;;;5125404;27;20494;-90
2022/04/29 16:36:42;;;;;;;5.47;2.92;;;;;;;;;;5126029;27;20046;-92
2022/04/29 16:39:27;;;;;;;5.85;2.90;;;;;;;;;;5142976;27;20037;-90
2022/04/29 16:42:15;;;;;;;5.50;2.60;;;;;;;;;;5133581;27;20057;-89
2022/04/29 16:44:59;;;;;;;5.32;2.33;;;;;;;;;;5143891;27;20038;-91
2022/04/29 16:47:44;;;;;;;4.30;2.20;;;;;;;;;;5120231;27;20156;-90
2022/04/29 16:50:28;;;;;;;6.90;3.10;;;;;;;;;;5153670;27;20555;-90
2022/04/29 16:53:16;;;;;;;3.50;2.20;;;;;;;;;;5140586;27;20037;-89
2022/04/29 16:56:01;;;;;;;4.20;1.92;;;;;;;;;;5156004;27;20464;-91
2022/04/29 16:58:55;;;;;;;5.38;1.95;;;;;;;;;;5141973;27;20111;-89
2022/04/29 17:01:39;;;;;;;3.60;1.73;;;;;;;;;;5140316;27;20029;-90
2022/04/29 17:04:24;;;;;;;3.50;2.10;;;;;;;;;;5135172;27;20046;-89
2022/04/29 17:07:08;;;;;;;4.03;1.75;;;;;;;;;;5106200;27;20123;-91